»·PEaware :: SWA1636 KLAS-KABQ

SWA1636 :: KLAS-KABQ

FLIGHT INFORMATION

Flight Status: Arrived
Operator:
Southwest Airlines
More flights by this operator :: More flights under this callsign
Pilot: Kyle M. (9350)
Aircraft: BOEING 737-900
(B739)
More flights by this aircraft type
Origin: KLAS McCarran Intl
United States
Destination: KABQ Albuquerque Intl Sunport
United States
More flights between these airports :: More routes between these airports
Route: COWBY8 GUP LOWBO3
File this flight plan on PilotEdge
Remarks: CptCanada - Youtube Livestreams
Altitude:
(Current/Filed)
37,000ft
Speed:
(Current/Filed)
450kts
Departed: 11-Jul-18 02:02 PM
Arrived: 11-Jul-18 03:14 PM
Distance/Time
Traveled:
421nm/1:12
Distance/Time
To Go:
Arrived

Flight Plot

Page will automatically refresh every two minutes.

Flight plan parsing failed; only flown route is shown


Map Options




Map Legend


Flown Route
Filed Route
Departure Airport
Arrival Airport
Navaid (VOR, NDB)
Fix

Horizontal Profiles

Position Reports

Time Latitude Longitude Heading Altitude Ground
Speed
11-Jul-18 13:36 36.079756 -115.146262 342 2149ft 0kts
11-Jul-18 13:37 36.079756 -115.146262 342 2149ft 0kts
11-Jul-18 13:38 36.079756 -115.146262 342 2149ft 0kts
11-Jul-18 13:39 36.079756 -115.146262 342 2149ft 0kts
11-Jul-18 13:40 36.079756 -115.146262 342 2149ft 0kts
11-Jul-18 13:41 36.079756 -115.146262 342 2149ft 0kts
11-Jul-18 13:42 36.079756 -115.146262 342 2149ft 0kts
11-Jul-18 13:43 36.079756 -115.146262 342 2149ft 0kts
11-Jul-18 13:44 36.079756 -115.146262 342 2149ft 0kts
11-Jul-18 13:45 36.079756 -115.146262 342 2149ft 0kts
11-Jul-18 13:46 36.079756 -115.146262 342 2149ft 0kts
11-Jul-18 13:47 36.079756 -115.146262 342 2149ft 0kts
11-Jul-18 13:48 36.079756 -115.146262 342 2148ft 0kts
11-Jul-18 13:49 36.079756 -115.146262 342 2148ft 0kts
11-Jul-18 13:50 36.079756 -115.146262 342 2148ft 0kts
11-Jul-18 13:51 36.079756 -115.146262 342 2148ft 0kts
11-Jul-18 13:52 36.079755 -115.146262 342 2149ft 0kts
11-Jul-18 13:53 36.079351 -115.146099 342 2149ft 1kts
11-Jul-18 13:54 36.078992 -115.145620 279 2148ft 2kts
11-Jul-18 13:55 36.079230 -115.144977 209 2149ft 2kts
11-Jul-18 13:56 36.079522 -115.144893 179 2148ft 0kts
11-Jul-18 13:57 36.079499 -115.144893 179 2148ft 1kts
11-Jul-18 13:58 36.077667 -115.144379 131 2148ft 6kts
11-Jul-18 13:59 36.077502 -115.143236 91 2148ft 14kts
11-Jul-18 14:00 36.077500 -115.137577 89 2149ft 21kts
11-Jul-18 14:01 36.077513 -115.130301 89 2148ft 20kts
11-Jul-18 14:02 36.077528 -115.123411 90 2149ft 19kts
11-Jul-18 14:03 36.076400 -115.123781 270 2149ft 46kts
11-Jul-18 14:04 36.076084 -115.172098 269 2905ft 187kts
11-Jul-18 14:05 36.074884 -115.239305 259 4952ft 207kts
11-Jul-18 14:06 36.028194 -115.280000 194 6625ft 242kts
11-Jul-18 14:07 35.955120 -115.298419 165 8252ft 282kts
11-Jul-18 14:08 35.880882 -115.266745 145 10489ft 299kts
11-Jul-18 14:09 35.842557 -115.170384 107 12463ft 332kts
11-Jul-18 14:10 35.819660 -115.060088 90 15216ft 339kts
11-Jul-18 14:11 35.831186 -114.943759 82 17795ft 351kts
11-Jul-18 14:12 35.843017 -114.822572 83 18937ft 357kts
11-Jul-18 14:13 35.854431 -114.699259 83 21179ft 367kts
11-Jul-18 14:14 35.865882 -114.572378 83 23238ft 378kts
11-Jul-18 14:15 35.877421 -114.441965 83 25124ft 388kts
11-Jul-18 14:16 35.888986 -114.309254 83 26832ft 398kts
11-Jul-18 14:17 35.900707 -114.172374 83 28411ft 407kts
11-Jul-18 14:18 35.912333 -114.034551 84 29837ft 416kts
11-Jul-18 14:19 35.921329 -113.892574 96 31168ft 424kts
11-Jul-18 14:20 35.899933 -113.748835 100 32423ft 432kts
11-Jul-18 14:21 35.876850 -113.602600 100 33571ft 440kts
11-Jul-18 14:22 35.853164 -113.453735 101 34660ft 447kts
11-Jul-18 14:23 35.829181 -113.304221 102 35964ft 446kts
11-Jul-18 14:24 35.804962 -113.154475 102 37056ft 448kts
11-Jul-18 14:25 35.780268 -113.003182 102 37268ft 455kts
11-Jul-18 14:26 35.754745 -112.848109 102 37263ft 464kts
11-Jul-18 14:27 35.729045 -112.693140 102 37264ft 460kts
11-Jul-18 14:28 35.703466 -112.540183 102 37265ft 459kts
11-Jul-18 14:29 35.677616 -112.386781 102 37263ft 457kts
11-Jul-18 14:30 35.651997 -112.236070 102 37265ft 458kts
11-Jul-18 14:31 35.625811 -112.083204 103 37266ft 464kts
11-Jul-18 14:32 35.598862 -111.927216 103 37267ft 472kts
11-Jul-18 14:33 35.588979 -111.764135 91 37274ft 484kts
11-Jul-18 14:34 35.584418 -111.599673 91 37292ft 483kts
11-Jul-18 14:35 35.579645 -111.434982 91 37293ft 483kts
11-Jul-18 14:36 35.574688 -111.271685 91 37290ft 483kts
11-Jul-18 14:37 35.569452 -111.106770 91 37212ft 485kts
11-Jul-18 14:38 35.564028 -110.942565 91 37131ft 483kts
11-Jul-18 14:39 35.558340 -110.777824 91 37129ft 483kts
11-Jul-18 14:40 35.552424 -110.613209 91 37130ft 483kts
11-Jul-18 14:41 35.546260 -110.447787 93 37133ft 491kts
11-Jul-18 14:42 35.540017 -110.284660 95 37130ft 471kts
11-Jul-18 14:43 35.533747 -110.128048 94 37205ft 455kts
11-Jul-18 14:44 35.527179 -109.969860 94 37211ft 476kts
11-Jul-18 14:45 35.520088 -109.805394 93 37211ft 487kts
11-Jul-18 14:46 35.512791 -109.640156 93 37212ft 485kts
11-Jul-18 14:47 35.505253 -109.474766 93 37212ft 485kts
11-Jul-18 14:48 35.497519 -109.310100 94 37209ft 485kts
11-Jul-18 14:49 35.489572 -109.145028 94 37210ft 485kts
11-Jul-18 14:50 35.481421 -108.980558 94 37210ft 485kts
11-Jul-18 14:51 35.476233 -108.814979 88 37216ft 486kts
11-Jul-18 14:52 35.480198 -108.650046 88 37199ft 477kts
11-Jul-18 14:53 35.483771 -108.491431 88 37215ft 470kts
11-Jul-18 14:54 35.485667 -108.334152 94 36741ft 468kts
11-Jul-18 14:55 35.475970 -108.177960 96 33280ft 473kts
11-Jul-18 14:56 35.465427 -108.017691 96 29957ft 466kts
11-Jul-18 14:57 35.455093 -107.863240 96 27198ft 446kts
11-Jul-18 14:58 35.445859 -107.720056 95 25026ft 405kts
11-Jul-18 14:59 35.437562 -107.586838 95 23197ft 381kts
11-Jul-18 15:00 35.429416 -107.458653 95 21453ft 377kts
11-Jul-18 15:01 35.411174 -107.337793 121 19759ft 356kts
11-Jul-18 15:02 35.359620 -107.237847 123 18090ft 337kts
11-Jul-18 15:03 35.311044 -107.143072 123 16645ft 318kts
11-Jul-18 15:04 35.257538 -107.059851 138 15450ft 315kts
11-Jul-18 15:05 35.193882 -106.989504 138 14231ft 309kts
11-Jul-18 15:06 35.133131 -106.918870 131 13100ft 291kts
11-Jul-18 15:07 35.081428 -106.841234 129 11867ft 294kts
11-Jul-18 15:08 35.031646 -106.765753 130 10732ft 279kts
11-Jul-18 15:09 34.983691 -106.693329 132 9627ft 269kts
11-Jul-18 15:10 34.954928 -106.614739 92 8479ft 252kts
11-Jul-18 15:11 34.973966 -106.541449 42 7516ft 223kts
11-Jul-18 15:12 35.020286 -106.508619 358 6993ft 176kts
11-Jul-18 15:13 35.044172 -106.545214 262 5782ft 144kts
11-Jul-18 15:14 35.044152 -106.590213 269 5362ft 59kts
11-Jul-18 15:15 35.045319 -106.603177 299 5362ft 31kts
11-Jul-18 15:16 35.045806 -106.612024 270 5362ft 21kts
11-Jul-18 15:17 35.047006 -106.614005 308 5362ft 0kts

Navigation Log

Ident Type
Flight plan parsing failed, navigation log unavailable